createdAt,value
2023-02-15T00:00:07.581Z,2.90
2023-02-15T00:02:40.411Z,3.16
2023-02-15T00:05:12.425Z,3.21
2023-02-15T00:07:44.571Z,3.06
2023-02-15T00:10:16.902Z,3.12
2023-02-15T00:12:48.904Z,3.11
2023-02-15T00:15:20.873Z,3.06
2023-02-15T00:17:52.792Z,3.14
2023-02-15T00:20:24.744Z,3.10
2023-02-15T00:22:56.766Z,3.28
2023-02-15T00:25:28.741Z,3.01
2023-02-15T00:28:01.449Z,2.68
2023-02-15T00:30:33.396Z,3.03
2023-02-15T00:33:05.651Z,3.04
2023-02-15T00:35:37.944Z,2.98
2023-02-15T00:38:09.893Z,3.09
2023-02-15T00:40:41.888Z,3.15
2023-02-15T00:43:13.841Z,2.93
2023-02-15T00:45:47.464Z,3.24
2023-02-15T00:48:20.447Z,3.24
2023-02-15T00:50:55.119Z,3.18
2023-02-15T00:53:29.080Z,3.11
2023-02-15T00:56:01.420Z,3.02
2023-02-15T00:58:33.650Z,3.12
2023-02-15T01:01:11.165Z,3.17
2023-02-15T01:03:43.898Z,3.17
2023-02-15T01:06:17.918Z,3.26
2023-02-15T01:08:49.902Z,3.14
2023-02-15T01:11:23.670Z,3.19
2023-02-15T01:13:58.151Z,2.73
2023-02-15T01:16:30.457Z,3.16
2023-02-15T01:19:03.973Z,3.15
2023-02-15T01:21:36.130Z,3.19
2023-02-15T01:24:14.289Z,3.01
2023-02-15T01:26:46.289Z,3.16
2023-02-15T01:29:18.295Z,3.16
2023-02-15T01:31:50.472Z,3.06
2023-02-15T01:34:22.516Z,3.20
2023-02-15T01:36:54.465Z,3.08
2023-02-15T01:39:26.588Z,3.12
2023-02-15T01:41:58.606Z,2.77
2023-02-15T01:44:50.812Z,3.14
2023-02-15T01:47:46.909Z,3.08
2023-02-15T01:50:34.620Z,3.06
2023-02-15T01:53:33.136Z,3.15
2023-02-15T01:56:15.301Z,3.10
2023-02-15T01:58:48.990Z,3.07
2023-02-15T02:01:21.215Z,3.10
2023-02-15T02:04:11.860Z,3.18
2023-02-15T02:06:46.924Z,3.08
2023-02-15T02:09:18.913Z,3.19
2023-02-15T02:11:51.191Z,3.21
2023-02-15T02:14:25.027Z,3.16
2023-02-15T02:17:06.439Z,3.12
2023-02-15T02:20:03.258Z,3.06
2023-02-15T02:22:41.094Z,2.78
2023-02-15T02:25:22.115Z,2.86
2023-02-15T02:28:17.229Z,2.89
2023-02-15T02:31:10.624Z,2.75
2023-02-15T02:33:54.001Z,2.62
2023-02-15T02:36:34.961Z,2.85
2023-02-15T02:39:25.409Z,2.91
2023-02-15T02:42:04.160Z,2.79
2023-02-15T02:44:47.059Z,2.88
2023-02-15T02:47:31.337Z,2.97
2023-02-15T02:50:14.538Z,3.07
2023-02-15T02:52:49.773Z,3.05
2023-02-15T02:55:42.867Z,2.99
2023-02-15T02:58:33.265Z,3.10
2023-02-15T03:01:10.304Z,2.98
2023-02-15T03:03:58.935Z,3.05
2023-02-15T03:06:55.607Z,3.04
2023-02-15T03:09:43.056Z,2.96
2023-02-15T03:12:20.966Z,2.86
2023-02-15T03:14:57.374Z,2.73
2023-02-15T03:17:33.082Z,2.70
2023-02-15T03:20:27.433Z,2.70
2023-02-15T03:23:05.203Z,2.64
2023-02-15T03:25:44.266Z,2.58
2023-02-15T03:28:41.013Z,2.81
2023-02-15T03:31:16.460Z,2.78
2023-02-15T03:33:59.380Z,2.92
2023-02-15T03:36:51.867Z,2.88
2023-02-15T03:39:28.315Z,2.97
2023-02-15T03:42:34.423Z,2.85
2023-02-15T03:45:24.426Z,2.86
2023-02-15T03:48:00.154Z,2.93
2023-02-15T03:50:55.152Z,2.92
2023-02-15T03:53:28.101Z,2.87
2023-02-15T03:56:00.776Z,2.78
2023-02-15T03:58:51.485Z,2.80
2023-02-15T04:01:56.919Z,2.94
2023-02-15T04:04:54.864Z,2.77
2023-02-15T04:07:26.879Z,2.82
2023-02-15T04:10:17.258Z,2.89
2023-02-15T04:12:49.128Z,3.01
2023-02-15T04:15:39.629Z,3.01
2023-02-15T04:18:11.567Z,2.85
2023-02-15T04:21:05.601Z,2.94
2023-02-15T04:23:56.485Z,2.93
2023-02-15T04:26:28.317Z,3.06
2023-02-15T04:29:00.213Z,3.01
2023-02-15T04:31:32.196Z,3.02
2023-02-15T04:34:04.356Z,3.00
2023-02-15T04:36:36.357Z,2.89
2023-02-15T04:39:08.892Z,2.56
2023-02-15T04:41:41.671Z,3.10
2023-02-15T04:44:13.832Z,3.10
2023-02-15T04:46:45.782Z,2.97
2023-02-15T04:49:17.714Z,2.85
2023-02-15T04:51:49.692Z,3.08
2023-02-15T04:54:21.764Z,2.94
2023-02-15T04:56:53.878Z,2.90
2023-02-15T04:59:25.857Z,3.11
2023-02-15T05:01:57.864Z,3.14
2023-02-15T05:04:29.926Z,2.97
2023-02-15T05:07:01.933Z,2.90
2023-02-15T05:09:33.814Z,3.08
2023-02-15T05:12:06.062Z,3.16
2023-02-15T05:14:37.931Z,3.16
2023-02-15T05:17:10.024Z,3.15
2023-02-15T05:19:41.965Z,3.08
2023-02-15T05:22:13.917Z,2.97
2023-02-15T05:25:04.347Z,3.00
2023-02-15T05:27:55.023Z,2.89
2023-02-15T05:30:27.175Z,2.73
2023-02-15T05:32:59.202Z,2.82
2023-02-15T05:35:31.149Z,2.74
2023-02-15T05:38:03.157Z,2.81
2023-02-15T05:40:35.113Z,2.91
2023-02-15T05:43:07.069Z,2.88
2023-02-15T05:45:39.037Z,2.86
2023-02-15T05:48:10.973Z,2.67
2023-02-15T05:50:42.943Z,2.69
2023-02-15T05:53:15.048Z,2.95
2023-02-15T05:55:47.062Z,2.60
2023-02-15T05:58:19.081Z,2.49
2023-02-15T06:00:51.159Z,2.81
2023-02-15T06:03:24.356Z,2.75
2023-02-15T06:05:56.327Z,2.87
2023-02-15T06:08:28.343Z,2.87
2023-02-15T06:11:00.389Z,2.89
2023-02-15T06:13:36.588Z,2.81
2023-02-15T06:16:10.371Z,2.71
2023-02-15T06:18:42.400Z,2.69
2023-02-15T06:21:14.639Z,2.79
2023-02-15T06:23:46.560Z,2.57
2023-02-15T06:26:18.577Z,2.71
2023-02-15T06:28:50.494Z,2.52
2023-02-15T06:31:22.707Z,2.77
2023-02-15T06:34:02.152Z,2.72
2023-02-15T06:36:34.337Z,2.52
2023-02-15T06:39:06.765Z,2.58
2023-02-15T06:41:38.883Z,2.34
2023-02-15T06:44:10.940Z,2.57
2023-02-15T06:46:42.954Z,2.61
2023-02-15T06:49:18.032Z,2.57
2023-02-15T06:51:50.017Z,2.73
2023-02-15T06:54:22.005Z,2.55
2023-02-15T06:56:53.905Z,2.63
2023-02-15T06:59:28.937Z,2.38
2023-02-15T07:02:01.148Z,2.60
2023-02-15T07:04:33.162Z,2.62
2023-02-15T07:07:05.629Z,2.62
2023-02-15T07:09:37.809Z,2.46
2023-02-15T07:12:49.141Z,2.45
2023-02-15T07:15:24.446Z,2.69
2023-02-15T07:17:56.761Z,2.53
2023-02-15T07:20:29.990Z,2.73
2023-02-15T07:23:01.962Z,2.55
2023-02-15T07:25:33.989Z,2.37
2023-02-15T07:28:06.136Z,2.56
2023-02-15T07:30:38.044Z,2.35
2023-02-15T07:33:24.856Z,2.64
2023-02-15T07:36:03.558Z,2.72
2023-02-15T07:38:38.012Z,2.70
2023-02-15T07:41:15.872Z,2.50
2023-02-15T07:43:47.988Z,2.63
2023-02-15T07:46:21.395Z,2.49
2023-02-15T07:48:53.331Z,2.60
2023-02-15T07:51:25.267Z,2.66
2023-02-15T07:53:57.446Z,2.65
2023-02-15T07:56:29.421Z,2.68
2023-02-15T07:59:05.076Z,2.69
2023-02-15T08:01:39.448Z,2.55
2023-02-15T08:04:12.634Z,2.68
2023-02-15T08:06:44.548Z,2.45
2023-02-15T08:09:16.456Z,2.54
2023-02-15T08:11:49.206Z,2.56
2023-02-15T08:14:23.601Z,2.23
2023-02-15T08:17:00.455Z,2.68
2023-02-15T08:19:34.142Z,2.49
2023-02-15T08:22:08.447Z,2.60
2023-02-15T08:24:40.974Z,2.42
2023-02-15T08:27:13.231Z,2.60
2023-02-15T08:29:45.219Z,2.57
2023-02-15T08:32:17.306Z,2.40
2023-02-15T08:34:50.294Z,2.55
2023-02-15T08:37:22.280Z,2.71
2023-02-15T08:39:54.194Z,2.37
2023-02-15T08:42:26.183Z,2.81
2023-02-15T08:44:58.166Z,2.73
2023-02-15T08:47:30.122Z,2.56
2023-02-15T08:50:02.119Z,2.24
2023-02-15T08:52:34.064Z,2.46
2023-02-15T08:55:06.312Z,1.80
2023-02-15T08:57:39.860Z,2.45
2023-02-15T09:00:13.182Z,2.52
2023-02-15T09:02:45.158Z,2.54
2023-02-15T09:05:17.327Z,2.45
2023-02-15T09:07:49.321Z,2.66
2023-02-15T09:10:21.666Z,2.69
2023-02-15T09:12:53.818Z,2.72
2023-02-15T09:15:25.889Z,2.71
2023-02-15T09:18:00.490Z,2.60
2023-02-15T09:20:32.480Z,2.75
2023-02-15T09:23:04.521Z,2.73
2023-02-15T09:25:36.514Z,2.52
2023-02-15T09:28:11.026Z,2.86
2023-02-15T09:30:43.963Z,2.77
2023-02-15T09:33:15.985Z,2.77
2023-02-15T09:35:47.976Z,2.81
2023-02-15T09:38:20.021Z,2.92
2023-02-15T09:41:09.870Z,2.97
2023-02-15T09:43:58.814Z,3.02
2023-02-15T09:46:49.284Z,2.99
2023-02-15T09:49:44.246Z,3.00
2023-02-15T09:52:19.132Z,2.75
2023-02-15T09:55:06.319Z,2.82
2023-02-15T09:58:03.872Z,2.77
2023-02-15T10:00:57.134Z,2.83
2023-02-15T10:03:42.890Z,2.95
2023-02-15T10:06:51.777Z,2.99
2023-02-15T10:10:03.822Z,3.00
2023-02-15T10:12:56.211Z,3.02
2023-02-15T10:15:54.666Z,2.93
2023-02-15T10:18:55.969Z,3.02
2023-02-15T10:21:47.976Z,2.98
2023-02-15T10:24:43.938Z,3.14
2023-02-15T10:27:23.092Z,2.86
2023-02-15T10:30:14.417Z,2.92
2023-02-15T10:32:52.407Z,3.03
2023-02-15T10:35:44.829Z,3.04
2023-02-15T10:38:45.883Z,3.12
2023-02-15T10:41:44.387Z,3.21
2023-02-15T10:44:20.474Z,3.16
2023-02-15T10:47:32.743Z,3.20
2023-02-15T10:50:23.030Z,3.18
2023-02-15T10:53:16.732Z,3.20
2023-02-15T10:56:05.525Z,3.21
2023-02-15T10:59:00.742Z,3.09
2023-02-15T11:01:39.975Z,3.14
2023-02-15T11:04:17.980Z,3.02
2023-02-15T11:06:54.574Z,3.07
2023-02-15T11:09:42.803Z,3.09
2023-02-15T11:12:20.297Z,3.18
2023-02-15T11:15:12.935Z,3.23
2023-02-15T11:17:51.978Z,3.02
2023-02-15T11:20:43.097Z,3.26
2023-02-15T11:23:17.669Z,3.24
2023-02-15T11:26:01.661Z,3.07
2023-02-15T11:28:46.341Z,3.20
2023-02-15T11:31:22.384Z,3.21
2023-02-15T11:34:01.402Z,2.97
2023-02-15T11:36:37.668Z,3.00
2023-02-15T11:39:15.442Z,2.93
2023-02-15T11:41:55.400Z,3.16
2023-02-15T11:44:42.462Z,3.18
2023-02-15T11:47:15.665Z,3.20
2023-02-15T11:49:47.614Z,3.20
2023-02-15T11:52:20.265Z,3.19
2023-02-15T11:54:53.714Z,3.24
2023-02-15T11:57:42.013Z,3.11
2023-02-15T12:00:14.366Z,3.16
2023-02-15T12:02:53.414Z,3.18
2023-02-15T12:05:28.541Z,3.20
2023-02-15T12:08:10.952Z,3.10
2023-02-15T12:11:01.545Z,3.27
2023-02-15T12:13:33.695Z,2.89
2023-02-15T12:16:14.245Z,3.17
2023-02-15T12:18:48.693Z,3.10
2023-02-15T12:21:42.524Z,3.06
2023-02-15T12:24:28.901Z,3.22
2023-02-15T12:27:23.558Z,3.23
2023-02-15T12:30:02.461Z,3.31
2023-02-15T12:32:52.622Z,3.34
2023-02-15T12:35:36.846Z,3.37
2023-02-15T12:38:11.795Z,3.39
2023-02-15T12:40:59.225Z,3.42
2023-02-15T12:43:37.152Z,3.41
2023-02-15T12:46:23.450Z,3.40
2023-02-15T12:49:21.520Z,3.38
2023-02-15T12:52:02.763Z,3.41
2023-02-15T12:54:41.306Z,3.22
2023-02-15T12:57:25.944Z,3.21
2023-02-15T12:59:57.937Z,3.37
2023-02-15T13:02:52.717Z,3.30
2023-02-15T13:05:40.377Z,3.33
2023-02-15T13:08:16.738Z,3.22
2023-02-15T13:11:12.472Z,3.24
2023-02-15T13:14:00.172Z,3.36
2023-02-15T13:16:41.071Z,3.37
2023-02-15T13:19:24.647Z,3.30
2023-02-15T13:21:58.808Z,3.33
2023-02-15T13:24:44.390Z,3.32
2023-02-15T13:27:22.842Z,3.26
2023-02-15T13:30:00.874Z,3.19
2023-02-15T13:32:38.377Z,3.25
2023-02-15T13:35:18.905Z,3.18
2023-02-15T13:38:09.584Z,3.14
2023-02-15T13:40:52.422Z,3.28
2023-02-15T13:43:39.429Z,3.23
2023-02-15T13:46:44.236Z,3.16
2023-02-15T13:49:52.401Z,3.19
2023-02-15T13:52:26.414Z,3.26
2023-02-15T13:55:08.544Z,3.19
2023-02-15T13:57:43.680Z,3.26
2023-02-15T14:00:43.912Z,3.21
2023-02-15T14:03:41.403Z,3.27
2023-02-15T14:06:48.765Z,3.20
2023-02-15T14:09:27.009Z,3.32
2023-02-15T14:12:17.142Z,3.38
2023-02-15T14:15:12.417Z,3.29
2023-02-15T14:17:56.437Z,3.28
2023-02-15T14:20:57.761Z,3.26
2023-02-15T14:23:55.004Z,3.24
2023-02-15T14:26:45.905Z,3.22
2023-02-15T14:29:26.985Z,3.12
2023-02-15T14:32:11.245Z,3.21
2023-02-15T14:34:49.195Z,3.14
2023-02-15T14:37:48.785Z,3.15
2023-02-15T14:41:02.474Z,3.07
2023-02-15T14:44:02.398Z,3.16
2023-02-15T14:47:01.569Z,3.05
2023-02-15T14:49:41.379Z,2.96
2023-02-15T14:52:14.277Z,3.09
2023-02-15T14:54:46.236Z,3.09
2023-02-15T14:57:18.178Z,3.10
2023-02-15T15:00:08.271Z,3.05
2023-02-15T15:02:40.272Z,3.08
2023-02-15T15:05:35.604Z,2.90
2023-02-15T15:08:07.793Z,2.98
2023-02-15T15:10:43.686Z,2.95
2023-02-15T15:13:34.404Z,3.00
2023-02-15T15:16:29.252Z,3.02
2023-02-15T15:19:03.810Z,2.82
2023-02-15T15:21:50.929Z,3.01
2023-02-15T15:24:38.196Z,3.01
2023-02-15T15:27:41.385Z,2.94
2023-02-15T15:30:16.383Z,2.93
2023-02-15T15:32:59.794Z,2.78
2023-02-15T15:36:16.849Z,2.87
2023-02-15T15:38:54.745Z,2.90
2023-02-15T15:41:38.824Z,2.84
2023-02-15T15:44:10.757Z,2.86
2023-02-15T15:46:58.169Z,2.79
2023-02-15T15:49:36.135Z,2.64
2023-02-15T15:52:18.000Z,2.71
2023-02-15T15:54:56.252Z,2.71
2023-02-15T15:57:33.101Z,2.76
2023-02-15T16:00:23.185Z,2.49
2023-02-15T16:02:56.960Z,2.59
2023-02-15T16:05:36.697Z,2.65
2023-02-15T16:08:08.812Z,2.35
2023-02-15T16:10:42.088Z,2.60
2023-02-15T16:13:16.118Z,2.68
2023-02-15T16:15:51.276Z,2.67
2023-02-15T16:18:26.376Z,2.65
2023-02-15T16:21:02.818Z,2.72
2023-02-15T16:23:57.790Z,2.56
2023-02-15T16:26:59.147Z,2.71
2023-02-15T16:29:34.073Z,2.70
2023-02-15T16:32:16.925Z,2.70
2023-02-15T16:35:01.103Z,2.68
2023-02-15T16:37:35.120Z,2.65
2023-02-15T16:40:08.104Z,2.66
2023-02-15T16:42:40.301Z,2.40
2023-02-15T16:45:20.772Z,2.55
2023-02-15T16:47:57.873Z,2.60
2023-02-15T16:50:38.918Z,2.47
2023-02-15T16:53:20.168Z,2.65
2023-02-15T16:55:55.789Z,2.51
2023-02-15T16:58:39.603Z,2.70
2023-02-15T17:01:14.630Z,2.63
2023-02-15T17:03:50.412Z,2.58
2023-02-15T17:06:27.704Z,2.66
2023-02-15T17:09:07.668Z,2.62
2023-02-15T17:11:44.406Z,2.56
2023-02-15T17:14:27.800Z,2.56
2023-02-15T17:17:08.643Z,2.42
2023-02-15T17:19:58.524Z,2.55
2023-02-15T17:22:32.295Z,2.61
2023-02-15T17:25:05.817Z,2.54
2023-02-15T17:27:39.739Z,2.39
2023-02-15T17:30:19.221Z,2.50
2023-02-15T17:33:03.244Z,2.61
2023-02-15T17:35:35.204Z,2.57
2023-02-15T17:38:20.320Z,2.61
2023-02-15T17:40:52.289Z,2.54
2023-02-15T17:43:24.227Z,2.44
2023-02-15T17:45:57.943Z,2.62
2023-02-15T17:48:35.539Z,2.62
2023-02-15T17:51:12.400Z,2.62
2023-02-15T17:54:03.335Z,2.57
2023-02-15T17:56:35.589Z,2.57
2023-02-15T17:59:07.876Z,2.50
2023-02-15T18:02:05.269Z,2.56
2023-02-15T18:04:56.688Z,2.42
2023-02-15T18:07:48.018Z,2.40
2023-02-15T18:10:38.755Z,2.48
2023-02-15T18:13:10.712Z,2.39
2023-02-15T18:15:42.877Z,2.34
2023-02-15T18:18:14.998Z,2.13
2023-02-15T18:20:47.003Z,2.09
2023-02-15T18:23:19.006Z,1.92
2023-02-15T18:25:51.017Z,1.80
2023-02-15T18:28:22.963Z,1.88
2023-02-15T18:30:54.964Z,1.76
2023-02-15T18:33:47.712Z,1.67
2023-02-15T18:36:24.812Z,1.53
2023-02-15T18:38:57.193Z,1.56
2023-02-15T18:41:29.834Z,1.44
2023-02-15T18:44:01.817Z,1.46
2023-02-15T18:46:33.808Z,1.37
2023-02-15T18:49:05.961Z,1.35
2023-02-15T18:51:40.542Z,1.16
2023-02-15T18:54:20.538Z,1.06
2023-02-15T18:56:58.852Z,1.09
2023-02-15T18:59:31.797Z,0.59
2023-02-15T19:02:03.958Z,0.62
2023-02-15T19:04:36.117Z,0.63
2023-02-15T19:07:20.375Z,0.57
2023-02-15T19:09:55.824Z,0.71
2023-02-15T19:12:31.595Z,0.66
2023-02-15T19:15:03.727Z,0.56
2023-02-15T19:17:35.753Z,0.30
2023-02-15T19:20:35.283Z,0.34
2023-02-15T19:23:12.940Z,0.33
2023-02-15T19:25:45.218Z,0.19
2023-02-15T19:28:24.868Z,0.16
2023-02-15T19:30:56.816Z,0.03
2023-02-15T19:33:28.790Z,0.26
2023-02-15T19:36:00.943Z,0.09
2023-02-15T19:38:36.926Z,0.22
2023-02-15T19:41:14.620Z,-0.13
2023-02-15T19:43:53.686Z,-0.13
2023-02-15T19:46:26.554Z,0.08
2023-02-15T19:48:59.396Z,-0.11
2023-02-15T19:51:31.371Z,-0.19
2023-02-15T19:54:03.554Z,-0.19
2023-02-15T19:56:36.468Z,-0.27
2023-02-15T19:59:23.666Z,-0.16
2023-02-15T20:01:55.875Z,-0.28
2023-02-15T20:04:27.957Z,-0.30
2023-02-15T20:07:03.016Z,-0.27
2023-02-15T20:09:41.109Z,-0.29
2023-02-15T20:12:25.380Z,-0.23
2023-02-15T20:14:58.613Z,-0.36
2023-02-15T20:17:30.572Z,-0.41
2023-02-15T20:20:02.559Z,-0.34
2023-02-15T20:22:34.748Z,-0.61
2023-02-15T20:25:07.025Z,-0.43
2023-02-15T20:27:42.400Z,-0.41
2023-02-15T20:30:17.278Z,-0.81
2023-02-15T20:32:49.689Z,-0.41
2023-02-15T20:35:24.167Z,-0.57
2023-02-15T20:37:59.939Z,-0.44
2023-02-15T20:40:35.276Z,-0.29
2023-02-15T20:43:15.002Z,-0.24
2023-02-15T20:45:46.943Z,-0.28
2023-02-15T20:48:18.924Z,-0.09
2023-02-15T20:50:51.120Z,-0.09
2023-02-15T20:53:23.046Z,0.05
2023-02-15T20:55:54.987Z,-0.01
2023-02-15T20:58:30.294Z,0.06
2023-02-15T21:01:02.791Z,0.18
2023-02-15T21:03:35.065Z,0.24
2023-02-15T21:06:07.143Z,-0.06
2023-02-15T21:08:39.191Z,0.17
2023-02-15T21:11:22.421Z,0.29
2023-02-15T21:13:54.772Z,0.24
2023-02-15T21:16:27.070Z,0.23
2023-02-15T21:18:59.513Z,0.31
2023-02-15T21:21:31.526Z,0.18
2023-02-15T21:24:03.710Z,0.07
2023-02-15T21:26:35.774Z,0.10
2023-02-15T21:29:14.699Z,0.02
2023-02-15T21:31:47.713Z,0.09
2023-02-15T21:34:20.187Z,-0.04
2023-02-15T21:36:52.178Z,0.03
2023-02-15T21:39:26.556Z,0.06
2023-02-15T21:42:16.987Z,-0.05
2023-02-15T21:45:07.723Z,-0.09
2023-02-15T21:47:51.762Z,-0.11
2023-02-15T21:50:43.638Z,-0.13
2023-02-15T21:53:26.077Z,-0.24
2023-02-15T21:56:00.885Z,-0.12
2023-02-15T21:58:37.053Z,-0.12
2023-02-15T22:01:24.773Z,-0.13
2023-02-15T22:03:59.373Z,-0.14
2023-02-15T22:06:31.349Z,-0.24
2023-02-15T22:09:05.972Z,-0.20
2023-02-15T22:11:37.843Z,-0.22
2023-02-15T22:14:43.488Z,-0.15
2023-02-15T22:17:17.721Z,-0.38
2023-02-15T22:19:50.373Z,-0.38
2023-02-15T22:22:22.785Z,-0.25
2023-02-15T22:24:54.970Z,-0.27
2023-02-15T22:27:28.562Z,-0.41
2023-02-15T22:30:00.772Z,-0.53
2023-02-15T22:32:33.131Z,-0.44
2023-02-15T22:35:10.371Z,-0.39
2023-02-15T22:37:42.325Z,-0.74
2023-02-15T22:40:16.185Z,-0.35
2023-02-15T22:42:51.085Z,-0.44
2023-02-15T22:45:25.216Z,-0.49
2023-02-15T22:48:00.242Z,-0.37
2023-02-15T22:50:33.544Z,-0.54
2023-02-15T22:53:05.506Z,-0.38
2023-02-15T22:55:38.926Z,-0.42
2023-02-15T22:58:19.111Z,-0.43
2023-02-15T23:00:51.622Z,-0.64
2023-02-15T23:03:26.380Z,-0.50
2023-02-15T23:05:58.313Z,-0.70
2023-02-15T23:08:30.262Z,-0.66
2023-02-15T23:11:02.511Z,-0.73
2023-02-15T23:13:34.651Z,-0.76
2023-02-15T23:16:08.100Z,-0.64
2023-02-15T23:18:45.500Z,-0.79
2023-02-15T23:21:32.367Z,-0.67
2023-02-15T23:24:27.491Z,-0.65
2023-02-15T23:27:20.069Z,-0.70
2023-02-15T23:29:52.133Z,-0.87
2023-02-15T23:32:24.304Z,-0.75
2023-02-15T23:34:56.242Z,-0.89
2023-02-15T23:37:28.489Z,-0.76
2023-02-15T23:40:18.983Z,-0.85
2023-02-15T23:42:50.986Z,-0.89
2023-02-15T23:45:24.383Z,-0.91
2023-02-15T23:48:15.228Z,-0.96
2023-02-15T23:50:47.005Z,-0.83
2023-02-15T23:53:18.868Z,-0.93
2023-02-15T23:55:51.005Z,-1.05
2023-02-15T23:58:28.976Z,-1.27
